Time;durP1;ratioP1;P1;durP2;ratioP2;P2;SDS_P1;SDS_P2;PMS_P1;PMS_P2;Temp;Humidity;BMP_temperature;BMP_pressure;BME280_temperature;BME280_humidity;BME280_pressure;Samples;Min_cycle;Max_cycle;Signal;HPM_P1;HPM_P2
2022/09/29 00:00:39;;;;;;;16.25;7.22;;;;;;;;;;2066050;28;20637;-69
2022/09/29 00:01:41;;;;;;;15.23;6.95;;;;;;;;;;2088044;28;20044;-69
2022/09/29 00:02:42;;;;;;;16.58;7.20;;;;;;;;;;2087429;28;21004;-69
2022/09/29 00:03:48;;;;;;;16.35;7.43;;;;;;;;;;2074880;28;20296;-68
2022/09/29 00:04:52;;;;;;;12.50;6.97;;;;;;;;;;2063910;28;20285;-69
2022/09/29 00:05:54;;;;;;;13.88;6.82;;;;;;;;;;2075262;28;20629;-68
2022/09/29 00:07:01;;;;;;;13.55;7.10;;;;;;;;;;2079931;28;20268;-69
2022/09/29 00:08:05;;;;;;;11.45;6.80;;;;;;;;;;2080337;28;20284;-68
2022/09/29 00:09:07;;;;;;;16.15;7.60;;;;;;;;;;2084786;28;20276;-69
2022/09/29 00:10:11;;;;;;;16.80;7.20;;;;;;;;;;2079619;28;20276;-68
2022/09/29 00:11:16;;;;;;;16.77;7.40;;;;;;;;;;2080121;28;20291;-68
2022/09/29 00:12:18;;;;;;;14.38;6.50;;;;;;;;;;2063314;28;20277;-68
2022/09/29 00:13:22;;;;;;;15.85;7.00;;;;;;;;;;2062942;28;20281;-68
2022/09/29 00:14:25;;;;;;;16.30;6.80;;;;;;;;;;2087453;28;20271;-67
2022/09/29 00:15:30;;;;;;;13.70;7.05;;;;;;;;;;2079345;28;20802;-67
2022/09/29 00:16:33;;;;;;;14.65;7.45;;;;;;;;;;2076510;28;20296;-67
2022/09/29 00:17:38;;;;;;;14.38;6.88;;;;;;;;;;2095603;28;20280;-67
2022/09/29 00:18:40;;;;;;;13.32;6.93;;;;;;;;;;2087580;28;20275;-68
2022/09/29 00:19:47;;;;;;;12.38;6.63;;;;;;;;;;2080321;28;20272;-68
2022/09/29 00:20:55;;;;;;;13.00;6.10;;;;;;;;;;2081813;28;20294;-68
2022/09/29 00:22:02;;;;;;;14.57;7.25;;;;;;;;;;2080741;28;20081;-68
2022/09/29 00:23:03;;;;;;;16.58;7.13;;;;;;;;;;2072390;28;20938;-68
2022/09/29 00:24:05;;;;;;;14.02;6.78;;;;;;;;;;2064631;28;20308;-68
2022/09/29 00:25:12;;;;;;;17.95;7.57;;;;;;;;;;2080390;28;20046;-68
2022/09/29 00:26:18;;;;;;;13.75;6.60;;;;;;;;;;2081995;28;20283;-68
2022/09/29 00:27:20;;;;;;;11.98;6.32;;;;;;;;;;2080443;28;20037;-68
2022/09/29 00:28:26;;;;;;;14.48;7.00;;;;;;;;;;2081475;28;20279;-68
2022/09/29 00:29:36;;;;;;;13.43;6.95;;;;;;;;;;2089044;28;20272;-68
2022/09/29 00:30:40;;;;;;;16.98;6.60;;;;;;;;;;2080598;28;20287;-68
2022/09/29 00:31:42;;;;;;;11.50;6.43;;;;;;;;;;2064946;28;20269;-68
2022/09/29 00:32:48;;;;;;;13.13;6.97;;;;;;;;;;2065372;28;20269;-68
2022/09/29 00:33:52;;;;;;;16.15;6.45;;;;;;;;;;2057165;28;20282;-68
2022/09/29 00:34:58;;;;;;;16.20;6.80;;;;;;;;;;2058847;28;20297;-69
2022/09/29 00:36:07;;;;;;;13.95;6.80;;;;;;;;;;2073810;28;20656;-68
2022/09/29 00:37:16;;;;;;;14.82;6.68;;;;;;;;;;2067155;28;20057;-68
2022/09/29 00:38:18;;;;;;;15.60;6.88;;;;;;;;;;2059184;28;20286;-68
2022/09/29 00:39:20;;;;;;;16.77;6.90;;;;;;;;;;2061352;28;20292;-68
2022/09/29 00:40:24;;;;;;;12.52;6.45;;;;;;;;;;2081195;28;20287;-69
2022/09/29 00:41:27;;;;;;;13.07;6.57;;;;;;;;;;2089021;28;20272;-68
2022/09/29 00:42:31;;;;;;;13.65;7.05;;;;;;;;;;2081167;28;20268;-68
2022/09/29 00:43:50;;;;;;;13.55;6.78;;;;;;;;;;2073315;28;20280;-68
2022/09/29 00:45:00;;;;;;;16.67;6.68;;;;;;;;;;2083586;28;20284;-68
2022/09/29 00:46:01;;;;;;;13.15;6.30;;;;;;;;;;2089268;28;20044;-68
2022/09/29 00:47:04;;;;;;;16.38;7.07;;;;;;;;;;2080360;28;20049;-68
2022/09/29 00:48:13;;;;;;;15.25;6.63;;;;;;;;;;2073616;28;20799;-68
2022/09/29 00:49:17;;;;;;;10.88;6.43;;;;;;;;;;2072771;28;20284;-68
2022/09/29 00:50:56;;;;;;;13.00;6.18;;;;;;;;;;2065347;28;20278;-68
2022/09/29 00:52:22;;;;;;;12.60;6.18;;;;;;;;;;2069561;28;20644;-68
2022/09/29 00:53:26;;;;;;;13.90;6.35;;;;;;;;;;2053605;28;20097;-68
2022/09/29 00:54:31;;;;;;;11.75;6.78;;;;;;;;;;2053405;28;20293;-67
2022/09/29 00:55:35;;;;;;;14.77;6.30;;;;;;;;;;2065357;28;20293;-68
2022/09/29 00:56:56;;;;;;;12.32;5.85;;;;;;;;;;2070749;28;20789;-68
2022/09/29 00:58:07;;;;;;;13.38;5.72;;;;;;;;;;2075615;28;20288;-68
2022/09/29 00:59:13;;;;;;;11.57;5.88;;;;;;;;;;2073738;28;20320;-68
2022/09/29 01:00:17;;;;;;;13.43;6.35;;;;;;;;;;2073224;28;20268;-68
2022/09/29 01:01:38;;;;;;;10.88;5.82;;;;;;;;;;2072206;28;20272;-68
2022/09/29 01:02:42;;;;;;;11.05;6.22;;;;;;;;;;2072472;28;20287;-68
2022/09/29 01:03:47;;;;;;;15.25;6.43;;;;;;;;;;2083534;28;20272;-68
2022/09/29 01:05:10;;;;;;;11.95;6.03;;;;;;;;;;2080778;28;20284;-68
2022/09/29 01:06:14;;;;;;;11.60;5.47;;;;;;;;;;2073692;28;20288;-68
2022/09/29 01:07:15;;;;;;;11.05;5.78;;;;;;;;;;2056710;28;20292;-68
2022/09/29 01:08:22;;;;;;;11.13;5.65;;;;;;;;;;2064551;28;20292;-68
2022/09/29 01:09:28;;;;;;;8.35;4.97;;;;;;;;;;2085614;28;20283;-68
2022/09/29 01:10:29;;;;;;;9.35;5.45;;;;;;;;;;2081251;28;20033;-68
2022/09/29 01:11:33;;;;;;;14.60;6.18;;;;;;;;;;2080508;28;20277;-68
2022/09/29 01:12:37;;;;;;;11.65;5.07;;;;;;;;;;2080793;28;20284;-68
2022/09/29 01:13:38;;;;;;;10.05;5.75;;;;;;;;;;2072752;28;20040;-68
2022/09/29 01:14:39;;;;;;;10.18;5.47;;;;;;;;;;2064454;28;20282;-68
2022/09/29 01:16:04;;;;;;;13.35;5.13;;;;;;;;;;2064591;28;20800;-68
2022/09/29 01:17:27;;;;;;;10.25;5.10;;;;;;;;;;2074545;28;20663;-68
2022/09/29 01:18:36;;;;;;;10.35;5.55;;;;;;;;;;2070949;28;20288;-68
2022/09/29 01:19:57;;;;;;;9.00;4.75;;;;;;;;;;2074298;28;20290;-68
2022/09/29 01:21:36;;;;;;;9.88;4.72;;;;;;;;;;2075431;28;20284;-67
2022/09/29 01:22:43;;;;;;;8.32;4.60;;;;;;;;;;2075872;28;20334;-68
2022/09/29 01:24:02;;;;;;;10.05;4.80;;;;;;;;;;2080425;28;20304;-68
2022/09/29 01:25:22;;;;;;;9.30;4.55;;;;;;;;;;2072446;28;20273;-68
2022/09/29 01:26:26;;;;;;;10.10;5.30;;;;;;;;;;2074418;28;20041;-68
2022/09/29 01:27:27;;;;;;;9.88;4.70;;;;;;;;;;2088030;28;20283;-68
2022/09/29 01:28:36;;;;;;;7.75;4.35;;;;;;;;;;2088639;28;20298;-68
2022/09/29 01:29:49;;;;;;;11.48;5.28;;;;;;;;;;2073093;28;20308;-68
2022/09/29 01:31:05;;;;;;;10.23;4.97;;;;;;;;;;2082607;28;20279;-68
2022/09/29 01:32:16;;;;;;;9.20;5.03;;;;;;;;;;2080569;28;20970;-68
2022/09/29 01:33:35;;;;;;;9.02;4.57;;;;;;;;;;2073027;28;20782;-68
2022/09/29 01:34:42;;;;;;;8.70;4.60;;;;;;;;;;2080628;28;20279;-68
2022/09/29 01:35:48;;;;;;;8.40;4.60;;;;;;;;;;2077350;28;20501;-68
2022/09/29 01:36:52;;;;;;;9.70;4.55;;;;;;;;;;2057438;28;20306;-68
2022/09/29 01:37:59;;;;;;;8.80;4.93;;;;;;;;;;2065328;28;20042;-68
2022/09/29 01:39:09;;;;;;;8.90;4.57;;;;;;;;;;2081013;28;20882;-68
2022/09/29 01:40:38;;;;;;;11.13;5.10;;;;;;;;;;2082082;28;20271;-68
2022/09/29 01:41:39;;;;;;;8.68;4.60;;;;;;;;;;2075861;28;20423;-68
2022/09/29 01:42:50;;;;;;;9.90;4.60;;;;;;;;;;2072393;28;20288;-68
2022/09/29 01:43:58;;;;;;;10.93;4.75;;;;;;;;;;2081938;28;20315;-68
2022/09/29 01:45:12;;;;;;;9.48;4.95;;;;;;;;;;2088422;28;20294;-68
2022/09/29 01:46:22;;;;;;;9.60;4.50;;;;;;;;;;2082579;28;20493;-68
2022/09/29 01:47:46;;;;;;;9.88;5.05;;;;;;;;;;2088138;28;20287;-68
2022/09/29 01:48:51;;;;;;;10.07;4.47;;;;;;;;;;2085252;28;20412;-68
2022/09/29 01:50:13;;;;;;;9.57;4.55;;;;;;;;;;2072784;28;20478;-68
2022/09/29 01:51:19;;;;;;;10.18;4.70;;;;;;;;;;2066440;28;20645;-68
2022/09/29 01:52:23;;;;;;;7.70;4.25;;;;;;;;;;2074132;28;20365;-69
2022/09/29 01:53:33;;;;;;;7.13;4.20;;;;;;;;;;2080094;28;20298;-68
2022/09/29 01:54:44;;;;;;;11.15;4.70;;;;;;;;;;2072211;28;20332;-68
2022/09/29 01:55:50;;;;;;;11.50;4.90;;;;;;;;;;2065654;28;20046;-68
2022/09/29 01:56:58;;;;;;;11.82;4.70;;;;;;;;;;2078529;28;20040;-68
2022/09/29 01:58:07;;;;;;;10.38;4.90;;;;;;;;;;2074867;28;20284;-68
2022/09/29 01:59:18;;;;;;;8.73;4.57;;;;;;;;;;2081416;28;20284;-68
2022/09/29 02:00:22;;;;;;;11.77;4.72;;;;;;;;;;2065406;28;20288;-68
2022/09/29 02:01:25;;;;;;;7.43;4.55;;;;;;;;;;2072870;28;20294;-68
2022/09/29 02:02:34;;;;;;;8.70;4.43;;;;;;;;;;2072442;28;20276;-68
2022/09/29 02:03:48;;;;;;;6.63;4.03;;;;;;;;;;2065032;28;20285;-68
2022/09/29 02:04:52;;;;;;;8.43;4.57;;;;;;;;;;2067614;28;20088;-68
2022/09/29 02:05:55;;;;;;;12.68;5.25;;;;;;;;;;2076037;28;20284;-68
2022/09/29 02:07:03;;;;;;;11.98;4.95;;;;;;;;;;2080342;28;20291;-68
2022/09/29 02:08:15;;;;;;;8.35;4.60;;;;;;;;;;2080981;28;20280;-68
2022/09/29 02:09:24;;;;;;;8.38;4.32;;;;;;;;;;2078829;28;20284;-68
2022/09/29 02:10:32;;;;;;;16.55;4.93;;;;;;;;;;2081244;28;20296;-68
2022/09/29 02:11:35;;;;;;;8.95;4.53;;;;;;;;;;2088124;28;20272;-68
2022/09/29 02:12:43;;;;;;;10.73;4.88;;;;;;;;;;2088306;28;20045;-68
2022/09/29 02:13:50;;;;;;;8.88;4.50;;;;;;;;;;2080307;28;20025;-67
2022/09/29 02:14:53;;;;;;;6.93;4.63;;;;;;;;;;2080224;28;20268;-68
2022/09/29 02:15:58;;;;;;;8.63;4.47;;;;;;;;;;2080806;28;20292;-67
2022/09/29 02:17:18;;;;;;;6.80;3.95;;;;;;;;;;2063706;28;20789;-68
2022/09/29 02:18:21;;;;;;;8.55;4.88;;;;;;;;;;2069337;28;20047;-68
2022/09/29 02:19:24;;;;;;;10.30;4.78;;;;;;;;;;2080125;28;20271;-67
2022/09/29 02:20:25;;;;;;;13.80;4.60;;;;;;;;;;2059100;28;20288;-68
2022/09/29 02:21:27;;;;;;;8.23;4.60;;;;;;;;;;2055657;28;20293;-67
2022/09/29 02:22:28;;;;;;;12.55;4.40;;;;;;;;;;2064113;28;20026;-68
2022/09/29 02:23:34;;;;;;;8.10;4.88;;;;;;;;;;2072422;28;20280;-69
2022/09/29 02:24:38;;;;;;;9.73;4.90;;;;;;;;;;2064570;28;20281;-68
2022/09/29 02:25:42;;;;;;;9.65;4.25;;;;;;;;;;2063978;28;20041;-68
2022/09/29 02:26:45;;;;;;;8.18;4.57;;;;;;;;;;2064596;28;20284;-68
2022/09/29 02:27:46;;;;;;;6.90;4.35;;;;;;;;;;2063937;28;20278;-68
2022/09/29 02:28:48;;;;;;;7.25;4.55;;;;;;;;;;2064059;28;20977;-68
2022/09/29 02:29:50;;;;;;;6.63;4.20;;;;;;;;;;2080086;28;20277;-68
2022/09/29 02:30:52;;;;;;;8.93;4.25;;;;;;;;;;2079938;28;20291;-69
2022/09/29 02:32:00;;;;;;;13.05;4.80;;;;;;;;;;2071263;28;20038;-69
2022/09/29 02:33:16;;;;;;;10.38;4.45;;;;;;;;;;2081075;28;20283;-69
2022/09/29 02:34:21;;;;;;;7.57;4.30;;;;;;;;;;2080141;28;20636;-69
2022/09/29 02:35:26;;;;;;;6.40;4.20;;;;;;;;;;2079696;28;20321;-69
2022/09/29 02:36:52;;;;;;;9.27;4.55;;;;;;;;;;2064430;28;20654;-69
2022/09/29 02:38:03;;;;;;;8.90;4.25;;;;;;;;;;2074888;28;20284;-69
2022/09/29 02:39:12;;;;;;;6.72;3.95;;;;;;;;;;2082515;28;20287;-68
2022/09/29 02:40:21;;;;;;;6.93;3.97;;;;;;;;;;2064859;28;20289;-69
2022/09/29 02:41:36;;;;;;;7.18;4.20;;;;;;;;;;2065567;28;20669;-69
2022/09/29 02:42:43;;;;;;;6.60;3.90;;;;;;;;;;2075229;28;20344;-68
2022/09/29 02:44:03;;;;;;;6.63;3.78;;;;;;;;;;2080487;28;20376;-68
2022/09/29 02:45:09;;;;;;;6.15;4.00;;;;;;;;;;2073536;28;20044;-69
2022/09/29 02:46:23;;;;;;;7.68;4.20;;;;;;;;;;2072282;28;20088;-69
2022/09/29 02:47:24;;;;;;;9.40;3.63;;;;;;;;;;2073345;28;20284;-68
2022/09/29 02:48:29;;;;;;;8.40;4.07;;;;;;;;;;2072477;28;20265;-68
2022/09/29 02:49:45;;;;;;;6.13;3.42;;;;;;;;;;2064210;28;20669;-68
2022/09/29 02:51:06;;;;;;;5.78;3.83;;;;;;;;;;2061582;28;20340;-69
2022/09/29 02:52:23;;;;;;;8.32;4.07;;;;;;;;;;2082977;28;20045;-68
2022/09/29 02:53:43;;;;;;;7.03;3.80;;;;;;;;;;2079742;28;20283;-68
2022/09/29 02:54:53;;;;;;;5.95;3.83;;;;;;;;;;2082414;28;20273;-68
2022/09/29 02:56:10;;;;;;;6.57;3.85;;;;;;;;;;2079772;28;20295;-68
2022/09/29 02:57:34;;;;;;;7.75;4.03;;;;;;;;;;2075962;28;20044;-68
2022/09/29 02:58:40;;;;;;;6.70;3.53;;;;;;;;;;2080833;28;20294;-68
2022/09/29 02:59:50;;;;;;;5.25;3.38;;;;;;;;;;2081086;28;20283;-68
2022/09/29 03:00:55;;;;;;;5.60;4.15;;;;;;;;;;2077659;28;20736;-68
2022/09/29 03:01:56;;;;;;;6.45;3.80;;;;;;;;;;2072031;28;20042;-68
2022/09/29 03:02:58;;;;;;;6.38;4.28;;;;;;;;;;2088042;28;20818;-68
2022/09/29 03:04:00;;;;;;;7.95;3.90;;;;;;;;;;2081037;28;20272;-68
2022/09/29 03:05:04;;;;;;;5.38;3.78;;;;;;;;;;2087711;28;20284;-68
2022/09/29 03:06:06;;;;;;;6.45;3.72;;;;;;;;;;2087955;28;20288;-68
2022/09/29 03:07:12;;;;;;;7.57;3.60;;;;;;;;;;2087660;28;20370;-69
2022/09/29 03:08:14;;;;;;;5.93;3.90;;;;;;;;;;2088066;28;20781;-68
2022/09/29 03:09:19;;;;;;;4.82;3.42;;;;;;;;;;2083627;28;20272;-69
2022/09/29 03:10:20;;;;;;;8.43;3.65;;;;;;;;;;2079516;28;21089;-69
2022/09/29 03:11:24;;;;;;;9.32;3.97;;;;;;;;;;2071832;28;20046;-69
2022/09/29 03:12:26;;;;;;;6.88;3.63;;;;;;;;;;2071976;28;20842;-69
2022/09/29 03:13:27;;;;;;;4.82;3.65;;;;;;;;;;2071480;28;20644;-69
2022/09/29 03:14:29;;;;;;;5.60;3.72;;;;;;;;;;2079988;28;20825;-68
2022/09/29 03:15:31;;;;;;;6.55;3.90;;;;;;;;;;2071431;28;20657;-69
2022/09/29 03:16:39;;;;;;;6.82;3.70;;;;;;;;;;2064171;28;20045;-69
2022/09/29 03:17:41;;;;;;;9.77;3.80;;;;;;;;;;2063803;28;20269;-69
2022/09/29 03:18:47;;;;;;;5.43;3.53;;;;;;;;;;2071974;28;20661;-68
2022/09/29 03:19:51;;;;;;;5.47;3.55;;;;;;;;;;2079677;28;20033;-68
2022/09/29 03:20:55;;;;;;;6.68;3.65;;;;;;;;;;2071483;28;20034;-69
2022/09/29 03:21:57;;;;;;;9.38;3.83;;;;;;;;;;2071812;28;20795;-68
2022/09/29 03:22:58;;;;;;;5.93;3.55;;;;;;;;;;2071667;28;20032;-68
2022/09/29 03:24:03;;;;;;;10.68;3.70;;;;;;;;;;2071470;28;20285;-69
2022/09/29 03:25:08;;;;;;;7.13;3.83;;;;;;;;;;2079536;28;20288;-69
2022/09/29 03:26:09;;;;;;;6.72;4.13;;;;;;;;;;2079242;28;20283;-69
2022/09/29 03:27:13;;;;;;;6.30;3.50;;;;;;;;;;2064133;28;20418;-68
2022/09/29 03:28:15;;;;;;;6.38;3.83;;;;;;;;;;2071450;28;20040;-69
2022/09/29 03:29:16;;;;;;;6.50;3.35;;;;;;;;;;2079552;28;20291;-69
2022/09/29 03:30:19;;;;;;;6.15;3.88;;;;;;;;;;2083396;28;20260;-68
2022/09/29 03:31:20;;;;;;;7.78;4.00;;;;;;;;;;2071119;28;20269;-69
2022/09/29 03:32:22;;;;;;;7.03;3.50;;;;;;;;;;2071527;28;21092;-69
2022/09/29 03:33:23;;;;;;;7.45;3.88;;;;;;;;;;2067756;28;20284;-69
2022/09/29 03:34:30;;;;;;;11.02;3.85;;;;;;;;;;2056645;28;20297;-69
2022/09/29 03:35:32;;;;;;;5.13;3.60;;;;;;;;;;2076425;28;20041;-69
2022/09/29 03:36:37;;;;;;;11.80;3.67;;;;;;;;;;2079997;28;20772;-69
2022/09/29 03:37:44;;;;;;;6.25;3.53;;;;;;;;;;2080820;28;20271;-69
2022/09/29 03:38:46;;;;;;;6.38;3.40;;;;;;;;;;2071205;28;20281;-68
2022/09/29 03:39:50;;;;;;;8.13;3.80;;;;;;;;;;2071568;28;20034;-68
2022/09/29 03:40:54;;;;;;;7.65;3.20;;;;;;;;;;2080028;28;20042;-68
2022/09/29 03:41:56;;;;;;;5.78;3.42;;;;;;;;;;2079479;28;20664;-68
2022/09/29 03:42:57;;;;;;;6.13;3.40;;;;;;;;;;2063152;28;20047;-68
2022/09/29 03:43:59;;;;;;;7.85;3.60;;;;;;;;;;2063987;28;20269;-68
2022/09/29 03:45:06;;;;;;;7.90;3.63;;;;;;;;;;2082787;28;20775;-68
2022/09/29 03:46:09;;;;;;;6.28;3.58;;;;;;;;;;2080012;28;20037;-68
2022/09/29 03:47:14;;;;;;;6.82;3.60;;;;;;;;;;2080541;28;20272;-68
2022/09/29 03:48:18;;;;;;;6.45;3.50;;;;;;;;;;2087772;28;20282;-68
2022/09/29 03:49:24;;;;;;;6.95;3.80;;;;;;;;;;2079459;28;20319;-67
2022/09/29 03:50:30;;;;;;;4.35;3.17;;;;;;;;;;2080249;28;20647;-68
2022/09/29 03:51:35;;;;;;;8.25;4.13;;;;;;;;;;2079583;28;20271;-68
2022/09/29 03:52:42;;;;;;;8.13;3.28;;;;;;;;;;2072545;28;20933;-67
2022/09/29 03:53:46;;;;;;;7.55;3.55;;;;;;;;;;2072618;28;20265;-68
2022/09/29 03:54:49;;;;;;;6.05;3.83;;;;;;;;;;2071665;28;20418;-68
2022/09/29 03:55:53;;;;;;;9.13;4.00;;;;;;;;;;2080184;28;20268;-68
2022/09/29 03:56:54;;;;;;;8.25;3.97;;;;;;;;;;2071955;28;20304;-68
2022/09/29 03:57:59;;;;;;;8.52;3.42;;;;;;;;;;2073972;28;20050;-69
2022/09/29 03:59:04;;;;;;;6.53;3.50;;;;;;;;;;2081556;28;20287;-69
2022/09/29 04:00:08;;;;;;;7.20;3.78;;;;;;;;;;2073430;28;20030;-69
2022/09/29 04:01:10;;;;;;;6.78;3.72;;;;;;;;;;2073705;28;20391;-68
2022/09/29 04:02:11;;;;;;;5.90;3.63;;;;;;;;;;2073150;28;20030;-68
2022/09/29 04:03:15;;;;;;;5.15;3.40;;;;;;;;;;2080385;28;20052;-70
2022/09/29 04:04:19;;;;;;;5.53;3.53;;;;;;;;;;2073516;28;20854;-68
2022/09/29 04:05:20;;;;;;;11.45;3.67;;;;;;;;;;2069459;28;20280;-68
2022/09/29 04:06:24;;;;;;;7.00;3.88;;;;;;;;;;2065594;28;20035;-69
2022/09/29 04:07:31;;;;;;;5.85;3.67;;;;;;;;;;2073059;28;20276;-68
2022/09/29 04:08:37;;;;;;;6.80;3.60;;;;;;;;;;2074081;28;20362;-68
2022/09/29 04:09:39;;;;;;;7.78;3.65;;;;;;;;;;2080862;28;20053;-68
2022/09/29 04:10:47;;;;;;;6.45;3.65;;;;;;;;;;2081135;28;20272;-69
2022/09/29 04:11:48;;;;;;;8.65;3.58;;;;;;;;;;2073787;28;20034;-68
2022/09/29 04:12:50;;;;;;;6.55;3.70;;;;;;;;;;2065044;28;20498;-68
2022/09/29 04:13:53;;;;;;;6.78;3.65;;;;;;;;;;2073063;28;20041;-68
2022/09/29 04:14:54;;;;;;;5.28;3.47;;;;;;;;;;2081148;28;20272;-69
2022/09/29 04:16:03;;;;;;;5.70;3.65;;;;;;;;;;2072748;28;20065;-68
2022/09/29 04:17:06;;;;;;;6.72;3.65;;;;;;;;;;2074069;28;20136;-69
2022/09/29 04:18:08;;;;;;;7.60;4.07;;;;;;;;;;2072670;28;20280;-69
2022/09/29 04:19:09;;;;;;;5.47;3.65;;;;;;;;;;2064784;28;20038;-68
2022/09/29 04:20:11;;;;;;;6.30;3.72;;;;;;;;;;2082290;28;20036;-68
2022/09/29 04:21:15;;;;;;;8.57;3.80;;;;;;;;;;2089291;28;20809;-68
2022/09/29 04:22:19;;;;;;;6.65;3.90;;;;;;;;;;2080815;28;20294;-69
2022/09/29 04:23:30;;;;;;;8.98;3.63;;;;;;;;;;2065447;28;20281;-69
2022/09/29 04:24:34;;;;;;;5.93;3.80;;;;;;;;;;2058750;28;20565;-69
2022/09/29 04:25:38;;;;;;;6.25;3.60;;;;;;;;;;2065207;28;20085;-69
2022/09/29 04:26:42;;;;;;;8.65;3.90;;;;;;;;;;2080627;28;20041;-69
2022/09/29 04:27:46;;;;;;;7.65;4.28;;;;;;;;;;2081711;28;20287;-67
2022/09/29 04:28:51;;;;;;;7.72;4.22;;;;;;;;;;2080897;28;20272;-68
2022/09/29 04:29:55;;;;;;;9.57;4.05;;;;;;;;;;2073425;28;20285;-68
2022/09/29 04:30:59;;;;;;;7.47;4.20;;;;;;;;;;2079950;28;20025;-68
2022/09/29 04:32:01;;;;;;;7.50;4.10;;;;;;;;;;2088598;28;20279;-68
2022/09/29 04:33:06;;;;;;;9.30;3.85;;;;;;;;;;2079853;28;20521;-69
2022/09/29 04:34:07;;;;;;;9.18;4.45;;;;;;;;;;2079942;28;20033;-69
2022/09/29 04:35:10;;;;;;;9.35;4.55;;;;;;;;;;2080110;28;20065;-70
2022/09/29 04:36:15;;;;;;;12.30;4.30;;;;;;;;;;2079376;28;20382;-69
2022/09/29 04:37:19;;;;;;;12.38;4.57;;;;;;;;;;2080142;28;20284;-68
2022/09/29 04:38:23;;;;;;;6.88;4.18;;;;;;;;;;2079697;28;20299;-69
2022/09/29 04:39:25;;;;;;;5.13;3.65;;;;;;;;;;2068341;28;20030;-68
2022/09/29 04:40:29;;;;;;;9.93;3.70;;;;;;;;;;2064167;28;20046;-69
2022/09/29 04:41:34;;;;;;;7.22;3.60;;;;;;;;;;2078529;28;20276;-70
2022/09/29 04:42:36;;;;;;;14.52;4.57;;;;;;;;;;2079640;28;20330;-67
2022/09/29 04:43:37;;;;;;;8.35;3.90;;;;;;;;;;2071318;28;20300;-67
2022/09/29 04:44:41;;;;;;;11.50;4.25;;;;;;;;;;2063986;28;20041;-68
2022/09/29 04:45:44;;;;;;;10.85;4.15;;;;;;;;;;2062704;28;20356;-67
2022/09/29 04:46:46;;;;;;;9.40;4.68;;;;;;;;;;2063342;28;20324;-67
2022/09/29 04:47:51;;;;;;;7.32;3.83;;;;;;;;;;2062753;28;20482;-68
2022/09/29 04:48:53;;;;;;;11.45;4.90;;;;;;;;;;2055648;28;20293;-68
2022/09/29 04:49:57;;;;;;;8.15;4.57;;;;;;;;;;2054791;28;20387;-68
2022/09/29 04:50:58;;;;;;;10.80;4.25;;;;;;;;;;2063186;28;20041;-68
2022/09/29 04:52:00;;;;;;;8.48;3.85;;;;;;;;;;2070279;28;20846;-69
2022/09/29 04:53:05;;;;;;;9.57;4.00;;;;;;;;;;2079176;28;20053;-68
2022/09/29 04:54:12;;;;;;;8.15;4.50;;;;;;;;;;2070744;28;20289;-69
2022/09/29 04:55:16;;;;;;;9.57;4.40;;;;;;;;;;2056445;28;20290;-68
2022/09/29 04:56:17;;;;;;;6.88;3.83;;;;;;;;;;2062795;28;20292;-68
2022/09/29 04:57:22;;;;;;;10.10;4.20;;;;;;;;;;2070402;28;20301;-68
2022/09/29 04:58:23;;;;;;;8.10;3.92;;;;;;;;;;2083974;28;20275;-69
2022/09/29 04:59:27;;;;;;;9.98;4.80;;;;;;;;;;2070038;28;20269;-68
2022/09/29 05:00:34;;;;;;;12.63;4.35;;;;;;;;;;2071230;28;20577;-68
2022/09/29 05:01:36;;;;;;;9.40;4.47;;;;;;;;;;2083520;28;20267;-68
2022/09/29 05:02:37;;;;;;;7.55;4.15;;;;;;;;;;2083941;28;20259;-68
2022/09/29 05:03:41;;;;;;;7.97;4.07;;;;;;;;;;2085155;28;20271;-68
2022/09/29 05:04:50;;;;;;;7.43;4.38;;;;;;;;;;2083158;28;20279;-68
2022/09/29 05:05:56;;;;;;;7.03;4.35;;;;;;;;;;2084717;28;20965;-68
2022/09/29 05:06:58;;;;;;;6.65;3.92;;;;;;;;;;2076017;28;20272;-68
2022/09/29 05:08:03;;;;;;;9.73;4.25;;;;;;;;;;2083552;28;20280;-68
2022/09/29 05:09:06;;;;;;;10.15;4.45;;;;;;;;;;2081993;28;20282;-68
2022/09/29 05:10:13;;;;;;;8.18;4.07;;;;;;;;;;2084731;28;20029;-67
2022/09/29 05:11:14;;;;;;;9.20;4.50;;;;;;;;;;2075788;28;20268;-67
2022/09/29 05:12:15;;;;;;;8.70;4.15;;;;;;;;;;2051851;28;20806;-67
2022/09/29 05:13:23;;;;;;;7.43;4.70;;;;;;;;;;2060045;28;20038;-66
2022/09/29 05:14:30;;;;;;;7.88;4.20;;;;;;;;;;2072983;28;20728;-66
2022/09/29 05:15:32;;;;;;;10.80;4.60;;;;;;;;;;2080008;28;20280;-66
2022/09/29 05:16:34;;;;;;;7.90;4.40;;;;;;;;;;2072987;28;20048;-66
2022/09/29 05:17:38;;;;;;;7.03;3.97;;;;;;;;;;2071752;28;20273;-66
2022/09/29 05:18:43;;;;;;;8.85;4.10;;;;;;;;;;2079597;28;20327;-66
2022/09/29 05:19:50;;;;;;;7.00;4.00;;;;;;;;;;2079810;28;21121;-66
2022/09/29 05:20:57;;;;;;;7.10;4.20;;;;;;;;;;2084285;28;20321;-67
2022/09/29 05:21:58;;;;;;;7.18;4.18;;;;;;;;;;2088207;28;20288;-67
2022/09/29 05:23:08;;;;;;;8.45;4.15;;;;;;;;;;2080534;28;20284;-68
2022/09/29 05:24:12;;;;;;;10.45;4.50;;;;;;;;;;2079120;28;20272;-67
2022/09/29 05:25:17;;;;;;;10.25;4.57;;;;;;;;;;2078695;28;20260;-66
2022/09/29 05:26:19;;;;;;;8.52;4.65;;;;;;;;;;2085055;28;20256;-66
2022/09/29 05:27:21;;;;;;;15.07;4.55;;;;;;;;;;2087472;28;20278;-66
2022/09/29 05:28:23;;;;;;;8.60;4.55;;;;;;;;;;2087673;28;20028;-67
2022/09/29 05:29:24;;;;;;;11.90;5.35;;;;;;;;;;2087459;28;20283;-66
2022/09/29 05:30:26;;;;;;;9.30;4.82;;;;;;;;;;2076570;28;20291;-66
2022/09/29 05:31:27;;;;;;;8.40;4.47;;;;;;;;;;2071489;28;20052;-67
2022/09/29 05:32:29;;;;;;;14.90;4.53;;;;;;;;;;2070924;28;20288;-67
2022/09/29 05:33:31;;;;;;;9.75;4.47;;;;;;;;;;2069452;28;20273;-67
2022/09/29 05:34:34;;;;;;;7.75;4.50;;;;;;;;;;2071126;28;20784;-67
2022/09/29 05:35:36;;;;;;;11.13;4.13;;;;;;;;;;2071691;28;20629;-67
2022/09/29 05:36:39;;;;;;;7.45;4.53;;;;;;;;;;2077353;28;20272;-66
2022/09/29 05:37:42;;;;;;;7.63;4.30;;;;;;;;;;2065108;28;20387;-68
2022/09/29 05:38:48;;;;;;;10.98;4.95;;;;;;;;;;2072293;28;20280;-67
2022/09/29 05:39:49;;;;;;;8.05;4.93;;;;;;;;;;2065365;28;20281;-67
2022/09/29 05:40:54;;;;;;;7.95;4.47;;;;;;;;;;2064045;28;20274;-67
2022/09/29 05:41:58;;;;;;;9.85;4.55;;;;;;;;;;2072427;28;20265;-67
2022/09/29 05:43:02;;;;;;;9.07;4.05;;;;;;;;;;2078086;28;20273;-67
2022/09/29 05:44:06;;;;;;;8.85;3.92;;;;;;;;;;2077775;28;20283;-67
2022/09/29 05:45:09;;;;;;;8.30;4.13;;;;;;;;;;2082954;28;20275;-68
2022/09/29 05:46:13;;;;;;;12.80;4.25;;;;;;;;;;2083671;28;20044;-68
2022/09/29 05:47:15;;;;;;;5.97;3.22;;;;;;;;;;2077980;28;20025;-68
2022/09/29 05:48:20;;;;;;;6.80;3.40;;;;;;;;;;2085436;28;20659;-67
2022/09/29 05:49:22;;;;;;;6.88;3.38;;;;;;;;;;2083215;28;20278;-67
2022/09/29 05:50:25;;;;;;;7.10;3.70;;;;;;;;;;2077339;28;20782;-68
2022/09/29 05:51:29;;;;;;;5.72;3.35;;;;;;;;;;2063876;28;20296;-68
2022/09/29 05:52:31;;;;;;;7.15;3.83;;;;;;;;;;2067409;28;20277;-67
2022/09/29 05:53:34;;;;;;;7.93;3.40;;;;;;;;;;2085386;28;20275;-67
2022/09/29 05:54:36;;;;;;;7.15;3.15;;;;;;;;;;2069237;28;20039;-67
2022/09/29 05:55:38;;;;;;;8.77;3.88;;;;;;;;;;2060787;28;20031;-68
2022/09/29 05:56:39;;;;;;;6.55;2.97;;;;;;;;;;2063742;28;20519;-67
2022/09/29 05:57:49;;;;;;;6.38;3.38;;;;;;;;;;2082761;28;20307;-68
2022/09/29 05:58:50;;;;;;;5.50;3.38;;;;;;;;;;2069062;28;20053;-67
2022/09/29 05:59:52;;;;;;;8.45;3.50;;;;;;;;;;2068548;28;20053;-68
2022/09/29 06:00:54;;;;;;;6.95;3.08;;;;;;;;;;2086658;28;20615;-68
2022/09/29 06:01:59;;;;;;;5.97;3.35;;;;;;;;;;2077247;28;20034;-68
2022/09/29 06:03:06;;;;;;;5.47;3.15;;;;;;;;;;2061252;28;20388;-68
2022/09/29 06:04:10;;;;;;;7.65;3.70;;;;;;;;;;2070412;28;20049;-67
2022/09/29 06:05:12;;;;;;;4.95;2.90;;;;;;;;;;2075055;28;20280;-67
2022/09/29 06:06:23;;;;;;;5.88;3.20;;;;;;;;;;2077579;28;20276;-67
2022/09/29 06:07:27;;;;;;;5.05;2.90;;;;;;;;;;2082624;28;20073;-68
2022/09/29 06:08:31;;;;;;;7.07;3.17;;;;;;;;;;2071702;28;20544;-68
2022/09/29 06:09:35;;;;;;;5.00;2.92;;;;;;;;;;2074991;28;20049;-67
2022/09/29 06:10:36;;;;;;;5.88;3.20;;;;;;;;;;2084515;28;20350;-68
2022/09/29 06:11:38;;;;;;;4.57;2.95;;;;;;;;;;2084731;28;20290;-68
2022/09/29 06:12:39;;;;;;;5.60;2.97;;;;;;;;;;2083832;28;20413;-67
2022/09/29 06:13:47;;;;;;;6.13;3.22;;;;;;;;;;2077121;28;20116;-66
2022/09/29 06:14:57;;;;;;;6.60;2.97;;;;;;;;;;2085076;28;20068;-67
2022/09/29 06:16:00;;;;;;;4.55;2.95;;;;;;;;;;2077111;28;20045;-67
2022/09/29 06:17:03;;;;;;;5.97;2.83;;;;;;;;;;2061054;28;20027;-68
2022/09/29 06:18:04;;;;;;;5.90;3.03;;;;;;;;;;2077226;28;20029;-68
2022/09/29 06:19:10;;;;;;;15.65;3.78;;;;;;;;;;2080577;28;20759;-67
2022/09/29 06:20:14;;;;;;;5.00;3.00;;;;;;;;;;2080234;28;20036;-68
2022/09/29 06:21:17;;;;;;;7.70;3.20;;;;;;;;;;2064157;28;20038;-68
2022/09/29 06:22:19;;;;;;;5.35;2.70;;;;;;;;;;2065805;28;20120;-68
2022/09/29 06:23:20;;;;;;;4.40;2.70;;;;;;;;;;2071599;28;20506;-68
2022/09/29 06:24:21;;;;;;;4.43;2.97;;;;;;;;;;2063764;28;20390;-68
2022/09/29 06:25:26;;;;;;;4.93;2.95;;;;;;;;;;2072309;28;20057;-68
2022/09/29 06:26:27;;;;;;;4.43;2.70;;;;;;;;;;2063559;28;20046;-68
2022/09/29 06:27:36;;;;;;;7.10;3.13;;;;;;;;;;2058952;28;20042;-68
2022/09/29 06:28:40;;;;;;;4.72;2.88;;;;;;;;;;2061453;28;20034;-68
2022/09/29 06:29:46;;;;;;;5.95;2.70;;;;;;;;;;2070487;28;20418;-68
2022/09/29 06:30:51;;;;;;;4.65;3.03;;;;;;;;;;2068958;28;20093;-68
2022/09/29 06:31:53;;;;;;;4.93;2.95;;;;;;;;;;2075141;28;20482;-68